Time;durP1;ratioP1;P1;durP2;ratioP2;P2;SDS_P1;SDS_P2;PMS_P1;PMS_P2;Temp;Humidity;BMP_temperature;BMP_pressure;BME280_temperature;BME280_humidity;BME280_pressure;Samples;Min_cycle;Max_cycle;Signal;HPM_P1;HPM_P2
2022/08/09 00:01:42;;;;;;;2.60;2.40;;;19.20;63.60;;;;;;5032809;28;20524;-64
2022/08/09 00:04:07;;;;;;;4.57;2.60;;;19.10;64.60;;;;;;5043700;28;20535;-63
2022/08/09 00:06:33;;;;;;;2.90;2.70;;;19.10;64.60;;;;;;5033491;28;20518;-63
2022/08/09 00:08:58;;;;;;;4.23;2.77;;;19.10;63.70;;;;;;5032849;28;20596;-63
2022/08/09 00:11:24;;;;;;;2.90;2.70;;;19.10;64.70;;;;;;5026884;28;20233;-63
2022/08/09 00:13:50;;;;;;;2.60;2.30;;;19.00;65.40;;;;;;5047552;28;20223;-63
2022/08/09 00:16:17;;;;;;;5.20;2.77;;;19.00;65.60;;;;;;5033083;28;20232;-63
2022/08/09 00:18:43;;;;;;;2.63;2.43;;;19.00;66.10;;;;;;5037962;28;20911;-64
2022/08/09 00:21:08;;;;;;;4.53;2.80;;;19.00;65.60;;;;;;5024919;28;21011;-64
2022/08/09 00:23:35;;;;;;;4.30;2.70;;;18.90;66.00;;;;;;5033122;28;20500;-63
2022/08/09 00:26:00;;;;;;;3.40;2.93;;;18.90;68.10;;;;;;5039221;28;20178;-63
2022/08/09 00:28:26;;;;;;;4.50;2.77;;;18.90;68.20;;;;;;5038680;28;20439;-63
2022/08/09 00:30:52;;;;;;;2.90;2.67;;;19.00;68.90;;;;;;5037084;28;20210;-63
2022/08/09 00:33:18;;;;;;;3.00;2.80;;;19.00;69.80;;;;;;5034763;28;20210;-63
2022/08/09 00:35:43;;;;;;;3.00;2.80;;;18.90;69.10;;;;;;5039800;28;20174;-63
2022/08/09 00:38:11;;;;;;;4.53;2.90;;;18.90;70.00;;;;;;5038683;28;20448;-63
2022/08/09 00:40:37;;;;;;;3.57;2.73;;;18.70;71.60;;;;;;5025258;28;20201;-63
2022/08/09 00:43:03;;;;;;;2.90;2.70;;;18.60;72.30;;;;;;5032200;28;20456;-63
2022/08/09 00:45:29;;;;;;;3.33;2.90;;;18.60;74.80;;;;;;5041795;28;20816;-64
2022/08/09 00:47:54;;;;;;;2.67;2.47;;;18.40;75.00;;;;;;5040936;28;20202;-63
2022/08/09 00:50:20;;;;;;;3.37;3.07;;;18.40;75.50;;;;;;5031156;28;20182;-63
2022/08/09 00:52:45;;;;;;;5.20;2.80;;;18.20;75.30;;;;;;5058504;23;20213;-63
2022/08/09 00:55:11;;;;;;;3.40;3.10;;;18.20;76.40;;;;;;5045965;28;20178;-63
2022/08/09 00:57:36;;;;;;;3.17;2.97;;;18.20;78.40;;;;;;5050190;28;20188;-64
2022/08/09 01:00:10;;;;;;;3.47;3.17;;;18.20;79.20;;;;;;5050785;28;20243;-64
2022/08/09 01:02:39;;;;;;;3.13;2.93;;;18.20;81.60;;;;;;5045171;28;20856;-65
2022/08/09 01:05:11;;;;;;;3.23;3.03;;;18.30;82.30;;;;;;5030992;28;20437;-64
2022/08/09 01:07:53;;;;;;;3.23;3.03;;;18.30;83.30;;;;;;5030065;28;20804;-65
2022/08/09 01:11:03;;;;;;;3.73;2.70;;;18.20;85.20;;;;;;5030608;28;20429;-65
2022/08/09 01:13:56;;;;;;;3.60;3.30;;;18.10;85.50;;;;;;5027195;28;20467;-64
2022/08/09 01:16:25;;;;;;;3.63;3.33;;;18.10;85.50;;;;;;5031700;28;20433;-65
2022/08/09 01:18:53;;;;;;;3.17;2.97;;;18.20;85.10;;;;;;5026936;28;21076;-66
2022/08/09 01:21:54;;;;;;;3.53;3.33;;;18.00;87.00;;;;;;5028950;28;20440;-66
2022/08/09 01:24:38;;;;;;;3.00;2.90;;;18.00;87.70;;;;;;4982702;28;20507;-66
2022/08/09 01:27:07;;;;;;;3.77;3.10;;;18.00;88.70;;;;;;5026888;28;20457;-65
2022/08/09 01:30:12;;;;;;;16.20;3.83;;;18.00;90.40;;;;;;5027544;28;20524;-65
2022/08/09 01:32:44;;;;;;;3.30;3.10;;;17.80;91.50;;;;;;4967606;28;21039;-66
2022/08/09 01:35:21;;;;;;;3.60;3.40;;;17.90;92.20;;;;;;5017228;28;20825;-67
2022/08/09 01:37:49;;;;;;;3.73;3.30;;;17.90;92.20;;;;;;5029454;28;20464;-66
2022/08/09 01:40:17;;;;;;;3.50;3.27;;;17.90;92.20;;;;;;5028594;28;20440;-66
2022/08/09 01:42:43;;;;;;;4.13;3.83;;;17.90;92.60;;;;;;5030147;28;20980;-67
2022/08/09 01:45:10;;;;;;;4.57;3.53;;;17.90;93.20;;;;;;5026653;28;20466;-66
2022/08/09 01:47:37;;;;;;;3.33;3.13;;;17.90;93.00;;;;;;5031104;28;20516;-66
2022/08/09 01:50:03;;;;;;;3.93;3.63;;;17.80;93.10;;;;;;5022725;28;20444;-66
2022/08/09 01:52:31;;;;;;;3.40;3.20;;;17.80;93.00;;;;;;5027039;28;20522;-66
2022/08/09 01:54:59;;;;;;;3.27;3.07;;;17.90;94.10;;;;;;5024560;28;20445;-64
2022/08/09 01:57:45;;;;;;;4.03;3.70;;;17.80;94.10;;;;;;5024022;28;20441;-66
2022/08/09 02:00:13;;;;;;;6.30;5.70;;;17.70;94.80;;;;;;5024815;28;20441;-65
2022/08/09 02:02:43;;;;;;;4.40;4.10;;;17.50;95.50;;;;;;5028732;28;20460;-66
2022/08/09 02:05:11;;;;;;;3.80;3.50;;;17.50;96.20;;;;;;5045382;28;20437;-67
2022/08/09 02:07:42;;;;;;;3.90;3.50;;;17.40;97.20;;;;;;5027622;28;20440;-67
2022/08/09 02:10:15;;;;;;;4.60;4.30;;;17.40;97.60;;;;;;5026147;28;20449;-65
2022/08/09 02:12:42;;;;;;;4.07;3.67;;;17.60;97.60;;;;;;5029457;28;20472;-67
2022/08/09 02:15:11;;;;;;;4.10;3.90;;;17.60;98.00;;;;;;5026604;28;20941;-65
2022/08/09 02:17:38;;;;;;;4.00;3.70;;;17.60;98.20;;;;;;5028368;28;20782;-65
2022/08/09 02:20:05;;;;;;;3.67;3.43;;;17.60;98.40;;;;;;5030734;28;20456;-67
2022/08/09 02:22:40;;;;;;;4.57;3.33;;;17.60;99.70;;;;;;5031105;28;20461;-65
2022/08/09 02:25:11;;;;;;;3.50;3.30;;;17.60;99.90;;;;;;5026697;28;20444;-65
2022/08/09 02:27:39;;;;;;;3.90;3.70;;;17.50;99.90;;;;;;5029267;28;20495;-67
2022/08/09 02:30:07;;;;;;;4.30;3.90;;;17.40;99.90;;;;;;5029776;28;20858;-67
2022/08/09 02:32:38;;;;;;;3.90;3.70;;;17.40;99.90;;;;;;5026829;28;20476;-65
2022/08/09 02:35:08;;;;;;;4.00;3.70;;;17.30;99.90;;;;;;5023593;28;20488;-65
2022/08/09 02:37:35;;;;;;;3.70;3.40;;;17.40;99.90;;;;;;5029263;28;20467;-64
2022/08/09 02:40:06;;;;;;;5.20;4.20;;;17.30;99.90;;;;;;5028232;28;20449;-66
2022/08/09 02:42:39;;;;;;;4.23;3.87;;;17.20;99.90;;;;;;5030250;28;20495;-66
2022/08/09 02:45:33;;;;;;;4.90;3.73;;;17.10;99.90;;;;;;5028178;28;20444;-65
2022/08/09 02:48:07;;;;;;;4.33;4.03;;;17.10;99.90;;;;;;5027371;28;20503;-67
2022/08/09 02:50:41;;;;;;;4.27;3.97;;;17.00;99.90;;;;;;5032847;28;20486;-66
2022/08/09 02:53:28;;;;;;;4.40;4.10;;;17.00;99.90;;;;;;5025829;28;20477;-65
2022/08/09 02:55:57;;;;;;;4.70;4.00;;;17.00;99.90;;;;;;5033453;28;20436;-65
2022/08/09 02:58:25;;;;;;;4.70;4.40;;;17.00;99.90;;;;;;5031562;28;20432;-65
2022/08/09 03:00:52;;;;;;;9.23;4.50;;;16.90;99.90;;;;;;5034180;28;20472;-66
2022/08/09 03:03:20;;;;;;;6.93;6.23;;;16.70;99.90;;;;;;5031137;28;20495;-66
2022/08/09 03:05:48;;;;;;;4.83;4.53;;;16.60;99.90;;;;;;5031747;28;21013;-65
2022/08/09 03:08:15;;;;;;;5.23;4.93;;;16.60;99.90;;;;;;5031782;28;20795;-66
2022/08/09 03:10:43;;;;;;;4.10;3.87;;;16.60;99.90;;;;;;5032988;28;20840;-65
2022/08/09 03:13:09;;;;;;;4.30;4.00;;;16.70;99.90;;;;;;5030813;28;20539;-65
2022/08/09 03:15:37;;;;;;;3.93;3.73;;;16.80;99.90;;;;;;5034522;28;20519;-66
2022/08/09 03:18:03;;;;;;;4.17;3.83;;;16.80;99.90;;;;;;5028489;28;20178;-66
2022/08/09 03:20:29;;;;;;;4.63;4.23;;;16.90;99.90;;;;;;5030921;28;21019;-67
2022/08/09 03:22:56;;;;;;;3.90;3.70;;;16.80;99.90;;;;;;5030365;28;20473;-66
2022/08/09 03:25:22;;;;;;;3.80;3.60;;;16.70;99.90;;;;;;5027919;28;20640;-65
2022/08/09 03:27:51;;;;;;;7.07;6.47;;;16.60;99.90;;;;;;5031654;28;20484;-64
2022/08/09 03:30:17;;;;;;;5.23;4.93;;;16.60;99.90;;;;;;5026379;28;20521;-64
2022/08/09 03:32:43;;;;;;;4.60;4.30;;;16.50;99.90;;;;;;5027932;28;20989;-64
2022/08/09 03:35:11;;;;;;;4.03;3.73;;;16.50;99.90;;;;;;5026303;28;20491;-64
2022/08/09 03:37:40;;;;;;;4.47;4.00;;;16.60;99.90;;;;;;5030414;28;20441;-64
2022/08/09 03:40:06;;;;;;;4.40;3.77;;;16.60;99.90;;;;;;5033397;28;20502;-65
2022/08/09 03:42:33;;;;;;;3.77;3.57;;;16.50;99.90;;;;;;5031571;28;20464;-64
2022/08/09 03:44:58;;;;;;;4.60;4.30;;;16.60;99.90;;;;;;5029194;28;20445;-65
2022/08/09 03:47:24;;;;;;;4.27;4.07;;;16.60;99.90;;;;;;5033270;28;20445;-63
2022/08/09 03:49:51;;;;;;;4.40;3.53;;;16.70;99.90;;;;;;5032495;28;20300;-64
2022/08/09 03:52:18;;;;;;;5.30;4.87;;;16.70;99.90;;;;;;5033071;28;20705;-63
2022/08/09 03:54:46;;;;;;;4.50;4.10;;;16.70;99.90;;;;;;5032362;28;20529;-63
2022/08/09 03:57:14;;;;;;;4.93;4.63;;;16.70;99.90;;;;;;5032796;28;20486;-64
2022/08/09 03:59:40;;;;;;;4.90;4.50;;;16.60;99.90;;;;;;5031213;28;20456;-63
2022/08/09 04:02:06;;;;;;;4.53;4.23;;;16.60;99.90;;;;;;5032530;28;20582;-64
2022/08/09 04:04:33;;;;;;;5.70;4.20;;;16.60;99.90;;;;;;5033347;28;20448;-63
2022/08/09 04:06:59;;;;;;;4.17;3.97;;;16.40;99.90;;;;;;5027929;28;20528;-63
2022/08/09 04:09:24;;;;;;;4.43;4.13;;;16.50;99.90;;;;;;5032253;28;20436;-63
2022/08/09 04:12:14;;;;;;;5.40;5.10;;;16.40;99.90;;;;;;5030562;28;20519;-63
2022/08/09 04:14:40;;;;;;;4.80;4.40;;;16.40;99.90;;;;;;5030704;28;20188;-65
2022/08/09 04:17:06;;;;;;;8.23;7.53;;;16.50;99.90;;;;;;5031364;28;20788;-64
2022/08/09 04:19:32;;;;;;;4.87;4.47;;;16.50;99.90;;;;;;5030234;28;20265;-63
2022/08/09 04:21:57;;;;;;;5.60;4.80;;;16.50;99.90;;;;;;5032227;28;20187;-63
2022/08/09 04:24:26;;;;;;;11.10;4.97;;;16.50;99.90;;;;;;5032233;28;20190;-64
2022/08/09 04:26:53;;;;;;;4.83;4.47;;;16.30;99.90;;;;;;5029686;28;20217;-64
2022/08/09 04:29:18;;;;;;;5.10;4.60;;;16.30;99.90;;;;;;5028871;28;20464;-64
2022/08/09 04:31:44;;;;;;;5.67;5.27;;;16.40;99.90;;;;;;5028247;28;21006;-63
2022/08/09 04:34:09;;;;;;;5.07;4.77;;;16.50;99.90;;;;;;5030681;28;20233;-64
2022/08/09 04:36:35;;;;;;;4.50;4.20;;;16.50;99.90;;;;;;5027786;28;20206;-64
2022/08/09 04:39:03;;;;;;;4.90;4.50;;;16.60;99.90;;;;;;5028752;28;20170;-63
2022/08/09 04:41:29;;;;;;;5.00;4.70;;;16.70;99.90;;;;;;5028732;28;20682;-64
2022/08/09 04:43:55;;;;;;;4.93;4.53;;;16.80;99.90;;;;;;5025914;28;20988;-64
2022/08/09 04:46:21;;;;;;;5.67;5.33;;;16.80;99.90;;;;;;5026324;28;20811;-63
2022/08/09 04:48:47;;;;;;;10.67;4.83;;;16.90;99.90;;;;;;5031910;28;20441;-65
2022/08/09 04:51:13;;;;;;;5.77;5.37;;;17.00;99.90;;;;;;5026662;28;20201;-63
2022/08/09 04:53:39;;;;;;;5.80;5.30;;;17.10;99.90;;;;;;5031878;28;20214;-64
2022/08/09 04:56:05;;;;;;;5.33;4.93;;;17.20;99.90;;;;;;5030898;28;20768;-64
2022/08/09 04:58:31;;;;;;;4.77;4.47;;;17.30;99.90;;;;;;5025785;28;20440;-65
2022/08/09 05:00:57;;;;;;;5.80;5.23;;;17.30;99.90;;;;;;5026827;28;20860;-64
2022/08/09 05:03:23;;;;;;;5.63;5.10;;;17.40;99.90;;;;;;5032484;28;20496;-64
2022/08/09 05:05:49;;;;;;;5.40;5.00;;;17.50;99.90;;;;;;5024595;28;20265;-64
2022/08/09 05:08:14;;;;;;;5.70;5.20;;;17.60;99.90;;;;;;5022354;28;20525;-65
2022/08/09 05:10:40;;;;;;;6.27;5.80;;;17.70;99.90;;;;;;5024634;28;20209;-65
2022/08/09 05:13:06;;;;;;;7.23;5.00;;;17.80;99.90;;;;;;5026582;28;20194;-64
2022/08/09 05:15:31;;;;;;;6.63;6.03;;;17.90;99.90;;;;;;5027786;28;20225;-64
2022/08/09 05:17:57;;;;;;;5.63;5.07;;;18.00;99.90;;;;;;5029116;28;20174;-65
2022/08/09 05:20:24;;;;;;;5.70;4.80;;;18.20;99.90;;;;;;5028298;28;20339;-65
2022/08/09 05:22:52;;;;;;;6.60;5.60;;;18.40;99.90;;;;;;5025102;28;20259;-65
2022/08/09 05:25:18;;;;;;;5.67;4.80;;;18.50;99.90;;;;;;5024515;28;20779;-64
2022/08/09 05:27:43;;;;;;;6.50;5.23;;;18.70;99.90;;;;;;5025415;28;20493;-64
2022/08/09 05:30:09;;;;;;;6.10;5.50;;;18.80;99.90;;;;;;5025764;28;20444;-64
2022/08/09 05:32:35;;;;;;;6.50;4.13;;;18.90;99.90;;;;;;5027174;28;20213;-65
2022/08/09 05:35:00;;;;;;;7.13;4.57;;;19.10;99.90;;;;;;5024357;28;20442;-65
2022/08/09 05:37:26;;;;;;;5.07;4.67;;;19.20;99.90;;;;;;5025800;28;20175;-65
2022/08/09 05:39:51;;;;;;;6.13;4.57;;;19.40;99.90;;;;;;5025859;28;20587;-65
2022/08/09 05:42:17;;;;;;;8.30;5.87;;;19.60;99.90;;;;;;5025420;28;20206;-65
2022/08/09 05:44:42;;;;;;;5.40;4.90;;;19.70;99.90;;;;;;5030025;28;20182;-64
2022/08/09 05:47:08;;;;;;;5.53;4.57;;;19.80;99.90;;;;;;5023453;28;20257;-65
2022/08/09 05:49:34;;;;;;;5.03;4.63;;;19.90;99.90;;;;;;5030488;28;20178;-65
2022/08/09 05:51:59;;;;;;;5.77;4.80;;;20.00;99.90;;;;;;5025526;28;20190;-64
2022/08/09 05:54:25;;;;;;;5.23;4.47;;;20.30;99.90;;;;;;5028057;28;20204;-64
2022/08/09 05:56:50;;;;;;;8.63;5.03;;;20.40;99.90;;;;;;5030242;28;20186;-65
2022/08/09 05:59:17;;;;;;;6.53;4.80;;;20.60;99.90;;;;;;5030054;28;20186;-66
2022/08/09 06:01:43;;;;;;;5.00;4.50;;;20.80;99.90;;;;;;5029709;28;20242;-65
2022/08/09 06:04:08;;;;;;;5.13;4.30;;;20.90;99.90;;;;;;5030434;28;20539;-65
2022/08/09 06:06:34;;;;;;;6.60;4.90;;;21.00;99.90;;;;;;5024061;28;20231;-64
2022/08/09 06:08:59;;;;;;;4.73;4.40;;;21.20;99.90;;;;;;5029917;28;20868;-67
2022/08/09 06:11:25;;;;;;;5.70;5.20;;;21.40;99.90;;;;;;5030563;28;20201;-64
2022/08/09 06:13:50;;;;;;;5.50;5.10;;;21.60;99.40;;;;;;5024966;28;20202;-64
2022/08/09 06:16:16;;;;;;;5.60;5.20;;;21.70;98.60;;;;;;5029614;28;20182;-64
2022/08/09 06:18:42;;;;;;;5.30;4.80;;;21.80;98.50;;;;;;5025236;28;20170;-64
2022/08/09 06:21:07;;;;;;;5.00;4.50;;;21.70;97.60;;;;;;5022983;28;20444;-64
2022/08/09 06:23:33;;;;;;;15.83;14.30;;;21.90;98.00;;;;;;5030089;28;20217;-64
2022/08/09 06:25:58;;;;;;;5.40;4.90;;;22.20;98.20;;;;;;5021424;28;20183;-65
2022/08/09 06:28:24;;;;;;;7.20;5.67;;;22.40;97.00;;;;;;5026997;28;20222;-64
2022/08/09 06:30:50;;;;;;;6.37;4.50;;;22.60;95.80;;;;;;5029693;28;20239;-64
2022/08/09 06:33:15;;;;;;;6.70;4.30;;;22.80;93.70;;;;;;5030069;28;20699;-64
2022/08/09 06:35:41;;;;;;;4.20;3.80;;;22.90;93.10;;;;;;5030382;28;20170;-63
2022/08/09 06:38:06;;;;;;;8.07;4.33;;;23.00;92.90;;;;;;5026562;28;20675;-64
2022/08/09 06:40:33;;;;;;;4.57;4.07;;;23.00;92.30;;;;;;5023251;28;20266;-65
2022/08/09 06:42:59;;;;;;;4.67;4.30;;;23.10;92.00;;;;;;5020550;28;20219;-64
2022/08/09 06:45:26;;;;;;;5.03;4.53;;;23.20;91.70;;;;;;5028344;28;20708;-64
2022/08/09 06:47:51;;;;;;;4.73;4.27;;;23.40;91.30;;;;;;5023826;28;21009;-64
2022/08/09 06:50:17;;;;;;;5.60;5.20;;;23.60;90.60;;;;;;5023162;28;20445;-64
2022/08/09 06:52:46;;;;;;;4.03;3.73;;;23.50;90.30;;;;;;5024802;28;20229;-63
2022/08/09 06:55:16;;;;;;;4.50;4.10;;;23.60;90.30;;;;;;5029960;28;20228;-63
2022/08/09 06:57:42;;;;;;;4.00;3.67;;;23.70;90.00;;;;;;5023160;28;20790;-63
2022/08/09 07:00:09;;;;;;;4.63;4.33;;;24.00;89.50;;;;;;5025022;28;20453;-64
2022/08/09 07:02:34;;;;;;;3.73;3.53;;;24.30;87.70;;;;;;5023112;28;20210;-63
2022/08/09 07:05:01;;;;;;;7.40;4.13;;;24.10;88.20;;;;;;5030584;28;20441;-63
2022/08/09 07:07:27;;;;;;;4.30;3.97;;;24.50;87.60;;;;;;5030554;28;20215;-63
2022/08/09 07:09:53;;;;;;;4.30;3.90;;;24.70;84.90;;;;;;5027574;28;21011;-63
2022/08/09 07:12:18;;;;;;;4.57;4.27;;;24.90;84.00;;;;;;5023878;28;20476;-63
2022/08/09 07:14:48;;;;;;;4.37;4.07;;;25.10;83.50;;;;;;5028437;28;20269;-64
2022/08/09 07:17:13;;;;;;;4.10;3.80;;;25.20;82.50;;;;;;5023380;28;20261;-65
2022/08/09 07:19:39;;;;;;;4.63;4.27;;;25.20;81.70;;;;;;5023849;28;20531;-64
2022/08/09 07:22:06;;;;;;;5.30;4.43;;;25.20;81.20;;;;;;5024897;28;20194;-64
2022/08/09 07:24:31;;;;;;;6.53;4.00;;;25.20;81.10;;;;;;5025439;28;20525;-63
2022/08/09 07:26:58;;;;;;;7.70;3.83;;;25.00;82.00;;;;;;5027835;28;20440;-64
2022/08/09 07:29:24;;;;;;;4.23;3.70;;;25.40;80.90;;;;;;5023280;28;20205;-64
2022/08/09 07:31:50;;;;;;;4.77;4.37;;;25.60;79.90;;;;;;5029579;28;20466;-63
2022/08/09 07:34:16;;;;;;;5.00;4.13;;;25.40;80.30;;;;;;5029397;28;20456;-64
2022/08/09 07:36:41;;;;;;;4.43;4.03;;;25.70;79.70;;;;;;5033753;28;20198;-64
2022/08/09 07:39:07;;;;;;;4.73;4.33;;;26.20;78.00;;;;;;5033169;28;20189;-64
2022/08/09 07:41:32;;;;;;;5.00;3.83;;;26.30;77.40;;;;;;5033433;28;20178;-63
2022/08/09 07:43:58;;;;;;;3.60;3.40;;;26.60;76.50;;;;;;5033483;28;20277;-63
2022/08/09 07:46:24;;;;;;;5.07;4.67;;;26.70;72.90;;;;;;5028916;28;20552;-63
2022/08/09 07:48:50;;;;;;;4.37;3.77;;;27.20;72.50;;;;;;5031316;28;20186;-64
2022/08/09 07:51:16;;;;;;;3.03;2.83;;;27.30;70.00;;;;;;5026416;28;20464;-64
2022/08/09 07:53:41;;;;;;;4.03;3.63;;;27.40;69.30;;;;;;5029534;28;20241;-63
2022/08/09 07:56:07;;;;;;;3.47;3.30;;;27.30;67.90;;;;;;5028666;28;20243;-63
2022/08/09 07:58:33;;;;;;;3.40;3.07;;;27.20;67.30;;;;;;5028424;28;20190;-63
2022/08/09 08:00:58;;;;;;;4.83;3.10;;;27.30;67.70;;;;;;5023226;28;20183;-64
2022/08/09 08:03:24;;;;;;;3.60;3.30;;;27.40;67.10;;;;;;5022887;28;20293;-63
2022/08/09 08:05:50;;;;;;;3.60;3.40;;;27.20;67.00;;;;;;5024808;28;20190;-63
2022/08/09 08:08:15;;;;;;;3.87;3.57;;;27.20;66.40;;;;;;5032494;28;20560;-64
2022/08/09 08:10:40;;;;;;;3.50;3.30;;;27.40;65.90;;;;;;5024967;28;20178;-64
2022/08/09 08:13:06;;;;;;;3.70;3.40;;;27.60;64.90;;;;;;5032222;28;20567;-64
2022/08/09 08:15:32;;;;;;;3.33;3.13;;;27.60;65.40;;;;;;5027644;28;20183;-63
2022/08/09 08:17:57;;;;;;;3.70;3.40;;;27.60;63.80;;;;;;5024440;28;20201;-63
2022/08/09 08:20:25;;;;;;;4.53;3.30;;;27.60;63.20;;;;;;5024592;28;20561;-63
2022/08/09 08:22:51;;;;;;;3.50;3.30;;;27.60;62.70;;;;;;5027634;28;20198;-63
2022/08/09 08:25:17;;;;;;;4.20;2.90;;;27.60;63.30;;;;;;5030249;28;20814;-64
2022/08/09 08:27:43;;;;;;;3.57;3.33;;;27.80;62.50;;;;;;5027005;28;20178;-63
2022/08/09 08:30:10;;;;;;;3.60;3.30;;;28.10;61.70;;;;;;5024177;28;20586;-63
2022/08/09 08:32:35;;;;;;;4.53;2.80;;;28.20;60.20;;;;;;5026332;28;20557;-63
2022/08/09 08:35:01;;;;;;;4.23;3.40;;;28.40;60.00;;;;;;5027620;28;20502;-65
2022/08/09 08:37:27;;;;;;;3.47;3.27;;;28.30;60.10;;;;;;5026621;28;20211;-64
2022/08/09 08:39:53;;;;;;;3.17;2.87;;;28.70;60.30;;;;;;5022741;28;20186;-64
2022/08/09 08:42:20;;;;;;;3.27;3.07;;;28.90;58.20;;;;;;5022549;28;20900;-64
2022/08/09 08:44:52;;;;;;;3.40;3.20;;;29.00;58.20;;;;;;5029686;28;20775;-63
2022/08/09 08:47:18;;;;;;;5.83;2.97;;;29.20;57.90;;;;;;5027483;28;20465;-64
2022/08/09 08:49:44;;;;;;;3.37;3.07;;;29.10;57.60;;;;;;5028277;28;20481;-63
2022/08/09 08:52:10;;;;;;;3.17;2.93;;;29.40;57.50;;;;;;5026287;28;20556;-64
2022/08/09 08:54:35;;;;;;;4.43;3.20;;;29.90;56.40;;;;;;5031274;28;20197;-64
2022/08/09 08:57:03;;;;;;;3.30;3.10;;;29.90;55.60;;;;;;5031693;28;20520;-64
2022/08/09 08:59:28;;;;;;;3.83;3.53;;;29.90;55.60;;;;;;5032086;28;20258;-64
2022/08/09 09:01:55;;;;;;;3.10;2.87;;;29.90;55.60;;;;;;5030823;28;20532;-64
2022/08/09 09:04:25;;;;;;;3.73;3.53;;;29.80;55.50;;;;;;5032149;28;20209;-64
2022/08/09 09:06:56;;;;;;;3.50;3.30;;;30.00;54.90;;;;;;5031416;28;20446;-64
2022/08/09 09:09:25;;;;;;;3.37;3.17;;;30.20;55.00;;;;;;5030893;28;20441;-64
2022/08/09 09:11:51;;;;;;;3.50;3.20;;;30.40;54.70;;;;;;5031732;28;20486;-62
2022/08/09 09:14:23;;;;;;;3.63;3.43;;;30.30;54.20;;;;;;5031739;28;20457;-64
2022/08/09 09:16:49;;;;;;;3.30;3.10;;;30.50;53.80;;;;;;5025270;28;20440;-64
2022/08/09 09:19:14;;;;;;;4.00;3.70;;;30.20;54.40;;;;;;5032151;28;20445;-64
2022/08/09 09:22:06;;;;;;;4.00;3.80;;;29.90;53.80;;;;;;5030770;28;20308;-64
2022/08/09 09:24:39;;;;;;;4.00;3.70;;;29.60;54.60;;;;;;5031769;28;20261;-65
2022/08/09 09:27:07;;;;;;;4.23;3.83;;;29.80;54.50;;;;;;5024677;28;20433;-64
2022/08/09 09:29:35;;;;;;;5.63;3.80;;;30.20;53.70;;;;;;5030023;28;20443;-64
2022/08/09 09:32:01;;;;;;;3.77;3.47;;;30.80;53.40;;;;;;5019830;28;20950;-65
2022/08/09 09:34:27;;;;;;;3.90;3.60;;;30.90;52.60;;;;;;5028847;28;20464;-64
2022/08/09 09:36:54;;;;;;;8.13;4.50;;;31.20;52.20;;;;;;5023815;28;20496;-64
2022/08/09 09:39:21;;;;;;;4.07;3.77;;;31.50;51.20;;;;;;5031157;28;20889;-64
2022/08/09 09:41:48;;;;;;;3.73;3.53;;;32.20;50.40;;;;;;5031140;28;20445;-62
2022/08/09 09:44:26;;;;;;;3.40;3.10;;;32.50;49.60;;;;;;5031907;28;21059;-63
2022/08/09 09:47:02;;;;;;;3.47;3.13;;;32.30;49.80;;;;;;5031611;28;20528;-65
2022/08/09 09:49:29;;;;;;;3.83;3.50;;;32.60;49.10;;;;;;5031340;28;20451;-62
2022/08/09 09:52:07;;;;;;;3.03;2.70;;;33.00;48.00;;;;;;5029777;28;20829;-62
2022/08/09 09:54:36;;;;;;;3.67;3.47;;;33.00;47.30;;;;;;5030792;28;20440;-62
2022/08/09 09:57:19;;;;;;;3.37;3.13;;;33.20;47.50;;;;;;5023191;28;20433;-62
2022/08/09 09:59:46;;;;;;;6.20;3.10;;;34.00;45.30;;;;;;5029429;28;20515;-63
2022/08/09 10:02:12;;;;;;;3.30;3.00;;;34.50;42.90;;;;;;5031078;28;20849;-63
2022/08/09 10:04:38;;;;;;;3.27;3.07;;;35.00;42.30;;;;;;5029754;28;20440;-63
2022/08/09 10:07:04;;;;;;;3.30;3.00;;;35.60;40.70;;;;;;5023482;28;20441;-62
2022/08/09 10:09:48;;;;;;;2.87;2.67;;;34.40;40.20;;;;;;5029159;28;20456;-62
2022/08/09 10:12:26;;;;;;;3.70;3.40;;;34.20;40.50;;;;;;5030230;28;20579;-62
2022/08/09 10:15:06;;;;;;;3.27;3.00;;;33.40;41.20;;;;;;5029174;28;20555;-62
2022/08/09 10:17:33;;;;;;;3.33;3.13;;;33.40;41.60;;;;;;5024870;28;20456;-62
2022/08/09 10:20:02;;;;;;;3.63;3.27;;;33.80;41.30;;;;;;5026997;28;20448;-63
2022/08/09 10:22:33;;;;;;;3.40;3.10;;;34.10;41.40;;;;;;5029795;28;20468;-63
2022/08/09 10:25:01;;;;;;;6.30;2.80;;;35.30;40.30;;;;;;5021261;28;20444;-63
2022/08/09 10:27:26;;;;;;;3.17;2.97;;;35.20;39.20;;;;;;5028176;28;20929;-63
2022/08/09 10:29:52;;;;;;;2.90;2.70;;;35.00;39.70;;;;;;5025316;28;20467;-63
2022/08/09 10:32:18;;;;;;;3.17;2.80;;;35.60;39.00;;;;;;5029143;28;20291;-63
2022/08/09 10:34:45;;;;;;;4.20;3.23;;;36.70;37.70;;;;;;5028779;28;20232;-62
2022/08/09 10:37:11;;;;;;;3.10;2.90;;;36.90;36.60;;;;;;5029937;28;20445;-63
2022/08/09 10:39:39;;;;;;;3.60;3.30;;;36.70;36.30;;;;;;5026503;28;20445;-62
2022/08/09 10:42:05;;;;;;;3.87;3.57;;;37.40;35.80;;;;;;5026734;28;20938;-63
2022/08/09 10:44:32;;;;;;;2.83;2.67;;;37.20;35.60;;;;;;5015354;28;20965;-63
2022/08/09 10:47:12;;;;;;;3.43;3.13;;;36.60;36.20;;;;;;5030262;28;20455;-63
2022/08/09 10:49:51;;;;;;;2.60;2.40;;;37.30;34.70;;;;;;5029668;28;20507;-63
2022/08/09 10:52:52;;;;;;;3.23;3.03;;;37.70;34.60;;;;;;5028575;28;20465;-63
2022/08/09 10:55:23;;;;;;;3.53;3.23;;;38.30;33.50;;;;;;5020969;28;20456;-63
2022/08/09 10:57:49;;;;;;;3.77;2.47;;;39.40;32.70;;;;;;5023604;28;20567;-63
2022/08/09 11:00:30;;;;;;;3.37;3.17;;;39.70;31.80;;;;;;5023956;28;20455;-63
2022/08/09 11:02:56;;;;;;;3.47;2.67;;;39.60;31.60;;;;;;5027572;28;20461;-63
2022/08/09 11:05:23;;;;;;;4.03;2.77;;;40.10;31.10;;;;;;5029923;28;20475;-63
2022/08/09 11:07:49;;;;;;;3.63;3.33;;;39.20;31.10;;;;;;5028283;28;20528;-63
2022/08/09 11:10:16;;;;;;;4.00;3.73;;;39.00;31.00;;;;;;5029772;28;20527;-63
2022/08/09 11:13:18;;;;;;;4.67;3.00;;;38.60;31.50;;;;;;5030896;28;20467;-63
2022/08/09 11:15:43;;;;;;;3.10;2.80;;;39.50;30.90;;;;;;5029849;28;20448;-63
2022/08/09 11:18:14;;;;;;;3.07;2.60;;;38.50;30.70;;;;;;5033023;28;20440;-63
2022/08/09 11:20:46;;;;;;;2.70;2.50;;;37.90;30.80;;;;;;5033754;28;20576;-63
2022/08/09 11:23:13;;;;;;;2.80;2.60;;;37.90;30.40;;;;;;5030758;28;20454;-63
2022/08/09 11:25:41;;;;;;;2.87;2.67;;;39.10;30.10;;;;;;5030586;28;20579;-63
2022/08/09 11:28:28;;;;;;;4.77;2.27;;;40.00;29.50;;;;;;5031140;28;20437;-63
2022/08/09 11:30:54;;;;;;;2.80;2.47;;;40.50;29.00;;;;;;5030560;28;20519;-63
2022/08/09 11:33:19;;;;;;;3.93;2.50;;;40.70;28.10;;;;;;5030606;28;20591;-63
2022/08/09 11:35:53;;;;;;;2.37;2.03;;;40.90;27.80;;;;;;5034355;28;20197;-62
2022/08/09 11:38:33;;;;;;;4.50;2.53;;;41.90;27.50;;;;;;5030156;28;20193;-63
2022/08/09 11:41:10;;;;;;;2.67;2.47;;;42.10;27.30;;;;;;5029656;28;20570;-66
2022/08/09 11:43:37;;;;;;;2.53;2.33;;;41.60;27.10;;;;;;5023322;28;20985;-63
2022/08/09 11:46:04;;;;;;;3.03;2.93;;;42.30;27.00;;;;;;5015354;28;20417;-63
2022/08/09 11:48:32;;;;;;;4.07;3.77;;;41.20;27.30;;;;;;5029723;28;20471;-63
2022/08/09 11:50:57;;;;;;;3.30;3.00;;;40.80;27.20;;;;;;5033190;28;20429;-63
2022/08/09 11:53:27;;;;;;;3.57;2.40;;;40.00;27.40;;;;;;5028939;28;20514;-63
2022/08/09 11:55:54;;;;;;;5.53;2.33;;;40.10;27.80;;;;;;5029506;28;20547;-63
2022/08/09 11:58:22;;;;;;;2.50;2.40;;;40.70;26.60;;;;;;5031962;28;20930;-63
2022/08/09 12:00:53;;;;;;;2.70;2.40;;;40.00;26.90;;;;;;5031833;28;20429;-63
2022/08/09 12:03:21;;;;;;;4.60;2.37;;;39.70;27.20;;;;;;5032918;28;20467;-63
2022/08/09 12:05:47;;;;;;;2.53;2.33;;;40.10;26.90;;;;;;5030232;28;20437;-63
2022/08/09 12:08:14;;;;;;;2.43;2.33;;;41.60;25.90;;;;;;5031464;28;20433;-63
2022/08/09 12:10:55;;;;;;;2.57;2.37;;;43.00;25.40;;;;;;5032557;28;20437;-62
2022/08/09 12:13:33;;;;;;;2.43;2.33;;;43.10;25.30;;;;;;5025116;28;20449;-63
2022/08/09 12:16:01;;;;;;;2.63;2.37;;;42.40;25.20;;;;;;5025255;28;20826;-63
2022/08/09 12:18:26;;;;;;;2.70;2.50;;;40.70;25.20;;;;;;5030004;28;20831;-63
2022/08/09 12:20:52;;;;;;;3.13;2.00;;;41.10;25.40;;;;;;5027687;28;20491;-63
2022/08/09 12:23:18;;;;;;;2.40;2.20;;;41.10;25.90;;;;;;5019853;28;20289;-63
2022/08/09 12:25:48;;;;;;;2.87;2.67;;;40.30;26.50;;;;;;5025020;28;20186;-63
2022/08/09 12:28:16;;;;;;;3.30;3.10;;;41.00;26.50;;;;;;5031369;28;20182;-63
2022/08/09 12:30:43;;;;;;;3.50;2.60;;;41.80;25.90;;;;;;5025833;28;20440;-62
2022/08/09 12:33:09;;;;;;;2.53;2.33;;;43.00;25.70;;;;;;5031902;28;20887;-63
2022/08/09 12:35:35;;;;;;;2.90;2.80;;;42.90;25.30;;;;;;5027194;28;20976;-63
2022/08/09 12:38:22;;;;;;;3.00;2.67;;;43.30;24.90;;;;;;5026551;28;20799;-63
2022/08/09 12:40:50;;;;;;;2.73;2.53;;;44.40;24.60;;;;;;5020329;28;20495;-63
2022/08/09 12:43:18;;;;;;;2.70;2.60;;;45.50;24.40;;;;;;5031798;28;20457;-62
2022/08/09 12:45:45;;;;;;;2.80;2.43;;;46.20;23.90;;;;;;5031876;28;20484;-63
2022/08/09 12:48:12;;;;;;;3.40;3.17;;;45.60;23.90;;;;;;5029557;28;20568;-63
2022/08/09 12:50:39;;;;;;;3.77;3.53;;;46.00;23.70;;;;;;5025745;28;20449;-63
2022/08/09 12:53:04;;;;;;;3.30;3.00;;;44.00;24.40;;;;;;5053478;23;20587;-63